sensor_id;sensor_type;location;lat;lon;timestamp;pressure;altitude;pressure_sealevel;temperature;humidity
41624;BME280;27319;50.306;18.926;2023-04-12T00:02:05;97674.47;;;6.94;93.14
41624;BME280;27319;50.306;18.926;2023-04-12T00:06:09;97672.78;;;6.85;93.25
41624;BME280;27319;50.306;18.926;2023-04-12T00:10:10;97672.78;;;6.85;94.05
41624;BME280;27319;50.306;18.926;2023-04-12T00:14:11;97672.28;;;6.89;93.28
41624;BME280;27319;50.306;18.926;2023-04-12T00:18:11;97670.91;;;6.77;93.11
41624;BME280;27319;50.306;18.926;2023-04-12T00:22:12;97674.59;;;6.84;92.47
41624;BME280;27319;50.306;18.926;2023-04-12T00:25:53;97672.78;;;6.85;92.40
41624;BME280;27319;50.306;18.926;2023-04-12T00:29:54;97675.91;;;6.80;93.00
41624;BME280;27319;50.306;18.926;2023-04-12T00:33:55;97665.72;;;6.50;93.64
41624;BME280;27319;50.306;18.926;2023-04-12T00:37:56;97667.59;;;6.83;93.07
41624;BME280;27319;50.306;18.926;2023-04-12T00:41:57;97663.25;;;6.82;92.74
41624;BME280;27319;50.306;18.926;2023-04-12T00:45:57;97662.53;;;6.47;92.87
41624;BME280;27319;50.306;18.926;2023-04-12T00:49:59;97655.66;;;6.62;93.41
41624;BME280;27319;50.306;18.926;2023-04-12T00:53:59;97664.47;;;6.62;93.55
41624;BME280;27319;50.306;18.926;2023-04-12T00:58:00;97660.97;;;6.62;93.61
41624;BME280;27319;50.306;18.926;2023-04-12T01:02:01;97648.19;;;6.73;93.23
41624;BME280;27319;50.306;18.926;2023-04-12T01:06:37;97644.53;;;6.74;92.05
41624;BME280;27319;50.306;18.926;2023-04-12T01:14:17;97650.88;;;6.48;92.78
41624;BME280;27319;50.306;18.926;2023-04-12T01:18:16;97642.41;;;6.52;92.70
41624;BME280;27319;50.306;18.926;2023-04-12T01:29:20;97648.72;;;6.51;93.19
41624;BME280;27319;50.306;18.926;2023-04-12T01:33:19;97650.06;;;6.47;93.38
41624;BME280;27319;50.306;18.926;2023-04-12T01:37:20;97646.13;;;6.34;92.99
41624;BME280;27319;50.306;18.926;2023-04-12T01:41:21;97658.41;;;6.52;93.20
41624;BME280;27319;50.306;18.926;2023-04-12T01:45:21;97649.09;;;6.56;92.09
41624;BME280;27319;50.306;18.926;2023-04-12T01:49:22;97649.72;;;6.50;92.52
41624;BME280;27319;50.306;18.926;2023-04-12T01:53:37;97648.09;;;6.57;92.30
41624;BME280;27319;50.306;18.926;2023-04-12T01:57:24;97634.78;;;6.57;91.71
41624;BME280;27319;50.306;18.926;2023-04-12T02:01:25;97632.44;;;6.54;91.61
41624;BME280;27319;50.306;18.926;2023-04-12T02:05:26;97629.56;;;6.48;91.61
41624;BME280;27319;50.306;18.926;2023-04-12T02:09:28;97627.72;;;6.48;91.07
41624;BME280;27319;50.306;18.926;2023-04-12T02:13:29;97630.66;;;6.37;92.96
41624;BME280;27319;50.306;18.926;2023-04-12T02:17:30;97641.44;;;6.53;91.40
41624;BME280;27319;50.306;18.926;2023-04-12T02:21:37;97637.03;;;6.44;92.21
41624;BME280;27319;50.306;18.926;2023-04-12T02:25:32;97631.69;;;6.44;91.61
41624;BME280;27319;50.306;18.926;2023-04-12T02:29:33;97623.44;;;6.04;92.23
41624;BME280;27319;50.306;18.926;2023-04-12T02:33:33;97624.56;;;6.19;91.87
41624;BME280;27319;50.306;18.926;2023-04-12T02:37:34;97630.13;;;6.08;92.12
41624;BME280;27319;50.306;18.926;2023-04-12T02:41:35;97631.56;;;6.03;92.07
41624;BME280;27319;50.306;18.926;2023-04-12T02:45:36;97626.34;;;5.93;92.10
41624;BME280;27319;50.306;18.926;2023-04-12T02:49:37;97622.44;;;6.05;92.34
41624;BME280;27319;50.306;18.926;2023-04-12T02:53:37;97628.75;;;6.04;91.68
41624;BME280;27319;50.306;18.926;2023-04-12T02:57:38;97622.31;;;6.15;91.60
41624;BME280;27319;50.306;18.926;2023-04-12T03:01:39;97630.53;;;5.78;91.44
41624;BME280;27319;50.306;18.926;2023-04-12T03:05:40;97629.69;;;5.95;91.37
41624;BME280;27319;50.306;18.926;2023-04-12T03:09:41;97632.28;;;5.87;91.64
41624;BME280;27319;50.306;18.926;2023-04-12T03:13:42;97642.06;;;6.04;90.90
41624;BME280;27319;50.306;18.926;2023-04-12T03:17:43;97636.97;;;6.11;90.43
41624;BME280;27319;50.306;18.926;2023-04-12T03:21:44;97640.47;;;6.11;90.78
41624;BME280;27319;50.306;18.926;2023-04-12T03:25:44;97639.78;;;6.09;90.37
41624;BME280;27319;50.306;18.926;2023-04-12T03:29:45;97647.44;;;6.12;90.42
41624;BME280;27319;50.306;18.926;2023-04-12T03:33:46;97632.50;;;5.94;90.95
41624;BME280;27319;50.306;18.926;2023-04-12T03:37:47;97629.81;;;6.11;89.97
41624;BME280;27319;50.306;18.926;2023-04-12T03:41:48;97627.72;;;5.97;89.63
41624;BME280;27319;50.306;18.926;2023-04-12T03:45:49;97626.66;;;5.90;90.28
41624;BME280;27319;50.306;18.926;2023-04-12T03:49:49;97624.06;;;5.63;91.43
41624;BME280;27319;50.306;18.926;2023-04-12T03:53:50;97628.09;;;5.85;90.47
41624;BME280;27319;50.306;18.926;2023-04-12T03:57:51;97624.63;;;5.75;90.46
41624;BME280;27319;50.306;18.926;2023-04-12T04:01:52;97619.63;;;5.54;91.08
41624;BME280;27319;50.306;18.926;2023-04-12T04:05:53;97612.59;;;5.80;90.88
41624;BME280;27319;50.306;18.926;2023-04-12T04:09:34;97609.91;;;5.63;92.04
41624;BME280;27319;50.306;18.926;2023-04-12T04:12:54;97614.16;;;5.56;90.80
41624;BME280;27319;50.306;18.926;2023-04-12T04:16:55;97605.19;;;5.74;91.30
41624;BME280;27319;50.306;18.926;2023-04-12T04:20:56;97604.84;;;5.87;90.93
41624;BME280;27319;50.306;18.926;2023-04-12T04:24:57;97607.78;;;6.01;90.76
41624;BME280;27319;50.306;18.926;2023-04-12T04:28:58;97610.88;;;5.79;90.82
41624;BME280;27319;50.306;18.926;2023-04-12T04:32:58;97617.06;;;5.97;90.25
41624;BME280;27319;50.306;18.926;2023-04-12T04:36:59;97618.13;;;5.69;91.12
41624;BME280;27319;50.306;18.926;2023-04-12T04:41:00;97625.91;;;5.80;91.33
41624;BME280;27319;50.306;18.926;2023-04-12T04:45:01;97625.41;;;6.02;89.90
41624;BME280;27319;50.306;18.926;2023-04-12T04:49:02;97624.72;;;5.65;91.11
41624;BME280;27319;50.306;18.926;2023-04-12T04:53:02;97628.16;;;5.75;90.60
41624;BME280;27319;50.306;18.926;2023-04-12T04:57:03;97631.34;;;5.79;91.26
41624;BME280;27319;50.306;18.926;2023-04-12T05:01:04;97636.31;;;5.91;90.91
41624;BME280;27319;50.306;18.926;2023-04-12T05:04:48;97634.75;;;5.71;91.01
41624;BME280;27319;50.306;18.926;2023-04-12T05:08:08;97634.47;;;5.92;91.17
41624;BME280;27319;50.306;18.926;2023-04-12T05:12:09;97636.47;;;5.90;90.48
41624;BME280;27319;50.306;18.926;2023-04-12T05:16:10;97643.78;;;5.88;90.34
41624;BME280;27319;50.306;18.926;2023-04-12T05:20:11;97642.47;;;5.92;90.52
41624;BME280;27319;50.306;18.926;2023-04-12T05:24:12;97648.03;;;5.81;90.13
41624;BME280;27319;50.306;18.926;2023-04-12T05:28:13;97654.34;;;5.97;90.17
41624;BME280;27319;50.306;18.926;2023-04-12T05:32:13;97651.06;;;5.86;91.22
41624;BME280;27319;50.306;18.926;2023-04-12T05:36:10;97647.66;;;5.93;90.90
41624;BME280;27319;50.306;18.926;2023-04-12T05:39:31;97645.78;;;6.11;90.56
41624;BME280;27319;50.306;18.926;2023-04-12T05:43:31;97643.25;;;5.84;91.10
41624;BME280;27319;50.306;18.926;2023-04-12T05:47:32;97640.56;;;6.02;90.25
41624;BME280;27319;50.306;18.926;2023-04-12T05:51:13;97636.44;;;6.07;90.11
41624;BME280;27319;50.306;18.926;2023-04-12T05:54:33;97630.13;;;6.08;89.15
41624;BME280;27319;50.306;18.926;2023-04-12T05:58:34;97626.22;;;6.20;89.21
41624;BME280;27319;50.306;18.926;2023-04-12T06:02:15;97623.81;;;6.35;89.38
41624;BME280;27319;50.306;18.926;2023-04-12T06:05:37;97630.56;;;6.21;89.02
41624;BME280;27319;50.306;18.926;2023-04-12T06:09:37;97622.81;;;6.36;88.83
41624;BME280;27319;50.306;18.926;2023-04-12T06:13:38;97637.44;;;6.32;88.84
41624;BME280;27319;50.306;18.926;2023-04-12T06:17:38;97625.44;;;6.28;87.94
41624;BME280;27319;50.306;18.926;2023-04-12T06:21:39;97633.84;;;6.15;88.75
41624;BME280;27319;50.306;18.926;2023-04-12T06:25:40;97624.31;;;6.13;88.12
41624;BME280;27319;50.306;18.926;2023-04-12T06:29:41;97613.72;;;6.21;88.51
41624;BME280;27319;50.306;18.926;2023-04-12T06:33:42;97624.22;;;6.22;87.96
41624;BME280;27319;50.306;18.926;2023-04-12T06:37:43;97606.78;;;6.28;87.97
41624;BME280;27319;50.306;18.926;2023-04-12T06:41:43;97607.47;;;6.30;88.82
41624;BME280;27319;50.306;18.926;2023-04-12T06:45:44;97612.94;;;6.54;88.05
41624;BME280;27319;50.306;18.926;2023-04-12T06:49:45;97614.69;;;6.37;88.76
41624;BME280;27319;50.306;18.926;2023-04-12T06:53:46;97617.38;;;6.45;88.01
41624;BME280;27319;50.306;18.926;2023-04-12T06:57:47;97605.03;;;6.44;88.57
41624;BME280;27319;50.306;18.926;2023-04-12T07:01:48;97604.13;;;6.53;88.49
41624;BME280;27319;50.306;18.926;2023-04-12T07:05:48;97614.84;;;6.69;88.27
41624;BME280;27319;50.306;18.926;2023-04-12T07:09:49;97611.38;;;6.77;87.95
41624;BME280;27319;50.306;18.926;2023-04-12T07:13:50;97616.41;;;6.80;87.06
41624;BME280;27319;50.306;18.926;2023-04-12T07:17:51;97621.88;;;6.70;87.80
41624;BME280;27319;50.306;18.926;2023-04-12T07:21:52;97618.44;;;6.94;87.48
41624;BME280;27319;50.306;18.926;2023-04-12T07:25:57;97618.66;;;7.00;87.65
41624;BME280;27319;50.306;18.926;2023-04-12T07:29:53;97612.38;;;7.17;86.64
41624;BME280;27319;50.306;18.926;2023-04-12T07:33:54;97613.03;;;7.19;86.10
41624;BME280;27319;50.306;18.926;2023-04-12T07:37:55;97615.72;;;7.27;85.25
41624;BME280;27319;50.306;18.926;2023-04-12T07:41:56;97624.78;;;7.34;85.21
41624;BME280;27319;50.306;18.926;2023-04-12T07:45:57;97614.75;;;7.36;84.34
41624;BME280;27319;50.306;18.926;2023-04-12T07:49:58;97607.59;;;7.53;84.43
41624;BME280;27319;50.306;18.926;2023-04-12T07:53:58;97613.28;;;7.58;83.88
41624;BME280;27319;50.306;18.926;2023-04-12T07:57:59;97604.78;;;7.78;82.99
41624;BME280;27319;50.306;18.926;2023-04-12T08:02:00;97599.28;;;7.56;81.61
41624;BME280;27319;50.306;18.926;2023-04-12T08:06:04;97597.09;;;7.59;81.71
41624;BME280;27319;50.306;18.926;2023-04-12T08:10:05;97608.63;;;7.68;80.61
41624;BME280;27319;50.306;18.926;2023-04-12T08:14:06;97616.97;;;7.81;80.32
41624;BME280;27319;50.306;18.926;2023-04-12T08:18:06;97605.81;;;7.85;80.22
41624;BME280;27319;50.306;18.926;2023-04-12T08:22:07;97597.47;;;7.80;79.53
41624;BME280;27319;50.306;18.926;2023-04-12T08:26:08;97593.63;;;7.91;80.77
41624;BME280;27319;50.306;18.926;2023-04-12T08:30:09;97603.31;;;8.32;77.82
41624;BME280;27319;50.306;18.926;2023-04-12T08:34:09;97607.81;;;8.23;77.81
41624;BME280;27319;50.306;18.926;2023-04-12T08:38:10;97604.13;;;8.16;78.91
41624;BME280;27319;50.306;18.926;2023-04-12T08:42:12;97593.09;;;8.19;79.18
41624;BME280;27319;50.306;18.926;2023-04-12T08:45:53;97593.28;;;8.26;78.85
41624;BME280;27319;50.306;18.926;2023-04-12T08:49:14;97581.56;;;8.19;77.24
41624;BME280;27319;50.306;18.926;2023-04-12T08:53:15;97586.75;;;8.44;76.89
41624;BME280;27319;50.306;18.926;2023-04-12T08:57:16;97588.50;;;8.68;76.69
41624;BME280;27319;50.306;18.926;2023-04-12T09:01:18;97587.41;;;8.93;73.98
41624;BME280;27319;50.306;18.926;2023-04-12T09:05:18;97580.25;;;8.85;74.40
41624;BME280;27319;50.306;18.926;2023-04-12T09:09:19;97566.81;;;8.93;74.18
41624;BME280;27319;50.306;18.926;2023-04-12T09:13:30;97575.75;;;8.86;74.02
41624;BME280;27319;50.306;18.926;2023-04-12T09:17:25;97567.47;;;8.65;74.87
41624;BME280;27319;50.306;18.926;2023-04-12T09:21:26;97562.28;;;8.63;74.15
41624;BME280;27319;50.306;18.926;2023-04-12T09:25:37;97560.34;;;8.80;73.11
41624;BME280;27319;50.306;18.926;2023-04-12T09:29:43;97554.63;;;9.21;71.34
41624;BME280;27319;50.306;18.926;2023-04-12T09:33:53;97554.25;;;9.77;69.53
41624;BME280;27319;50.306;18.926;2023-04-12T09:37:56;97549.44;;;9.50;69.86
41624;BME280;27319;50.306;18.926;2023-04-12T09:42:04;97552.88;;;9.36;67.58
41624;BME280;27319;50.306;18.926;2023-04-12T09:46:13;97528.00;;;9.50;67.92
41624;BME280;27319;50.306;18.926;2023-04-12T09:50:18;97539.91;;;9.70;67.05
41624;BME280;27319;50.306;18.926;2023-04-12T09:54:12;97528.81;;;9.73;66.57
41624;BME280;27319;50.306;18.926;2023-04-12T09:58:13;97520.88;;;9.65;69.01
41624;BME280;27319;50.306;18.926;2023-04-12T10:02:14;97510.63;;;9.69;70.73
41624;BME280;27319;50.306;18.926;2023-04-12T10:06:15;97517.22;;;9.81;65.82
41624;BME280;27319;50.306;18.926;2023-04-12T10:10:16;97515.19;;;9.97;65.94
41624;BME280;27319;50.306;18.926;2023-04-12T10:14:16;97508.66;;;10.51;61.39
41624;BME280;27319;50.306;18.926;2023-04-12T10:18:17;97503.34;;;10.57;64.27
41624;BME280;27319;50.306;18.926;2023-04-12T10:22:17;97514.81;;;10.80;62.20
41624;BME280;27319;50.306;18.926;2023-04-12T10:26:18;97507.00;;;10.50;61.89
41624;BME280;27319;50.306;18.926;2023-04-12T10:30:35;97497.69;;;11.17;66.23
41624;BME280;27319;50.306;18.926;2023-04-12T10:34:35;97497.44;;;11.68;62.74
41624;BME280;27319;50.306;18.926;2023-04-12T10:38:46;97505.84;;;11.59;61.14
41624;BME280;27319;50.306;18.926;2023-04-12T10:43:06;97502.88;;;11.54;60.78
41624;BME280;27319;50.306;18.926;2023-04-12T10:50:24;97504.00;;;11.45;60.67
41624;BME280;27319;50.306;18.926;2023-04-12T10:58:00;97494.91;;;11.46;60.60
41624;BME280;27319;50.306;18.926;2023-04-12T11:02:07;97481.09;;;11.28;60.80
41624;BME280;27319;50.306;18.926;2023-04-12T11:06:16;97484.25;;;11.73;59.28
41624;BME280;27319;50.306;18.926;2023-04-12T11:10:17;97476.59;;;12.25;61.22
41624;BME280;27319;50.306;18.926;2023-04-12T11:14:20;97475.69;;;12.86;57.89
41624;BME280;27319;50.306;18.926;2023-04-12T11:18:19;97470.84;;;13.16;60.59
41624;BME280;27319;50.306;18.926;2023-04-12T11:22:21;97458.84;;;13.25;54.75
41624;BME280;27319;50.306;18.926;2023-04-12T11:26:20;97468.06;;;13.69;57.61
41624;BME280;27319;50.306;18.926;2023-04-12T11:30:21;97453.91;;;13.41;54.60
41624;BME280;27319;50.306;18.926;2023-04-12T11:34:22;97461.22;;;13.67;53.99
41624;BME280;27319;50.306;18.926;2023-04-12T11:38:23;97459.94;;;14.15;52.30
41624;BME280;27319;50.306;18.926;2023-04-12T11:42:24;97456.03;;;13.85;54.00
41624;BME280;27319;50.306;18.926;2023-04-12T11:46:25;97450.81;;;13.96;53.09
41624;BME280;27319;50.306;18.926;2023-04-12T11:50:27;97450.22;;;14.33;55.94
41624;BME280;27319;50.306;18.926;2023-04-12T11:54:27;97453.50;;;14.16;51.81
41624;BME280;27319;50.306;18.926;2023-04-12T11:57:53;97437.13;;;13.52;51.18
41624;BME280;27319;50.306;18.926;2023-04-12T12:01:53;97425.09;;;14.20;56.28
41624;BME280;27319;50.306;18.926;2023-04-12T12:05:55;97418.09;;;14.76;53.78
41624;BME280;27319;50.306;18.926;2023-04-12T12:09:55;97416.31;;;15.32;55.37
41624;BME280;27319;50.306;18.926;2023-04-12T12:14:05;97413.88;;;15.24;50.69
41624;BME280;27319;50.306;18.926;2023-04-12T12:18:06;97414.28;;;15.58;49.37
41624;BME280;27319;50.306;18.926;2023-04-12T12:22:15;97409.16;;;15.13;50.83
41624;BME280;27319;50.306;18.926;2023-04-12T12:26:18;97406.88;;;14.72;50.30
41624;BME280;27319;50.306;18.926;2023-04-12T12:30:18;97402.75;;;14.70;51.63
41624;BME280;27319;50.306;18.926;2023-04-12T12:34:19;97399.88;;;14.52;49.98
41624;BME280;27319;50.306;18.926;2023-04-12T12:38:20;97393.34;;;13.96;50.00
41624;BME280;27319;50.306;18.926;2023-04-12T12:42:21;97381.94;;;14.77;56.09
41624;BME280;27319;50.306;18.926;2023-04-12T12:46:22;97383.38;;;15.17;50.13
41624;BME280;27319;50.306;18.926;2023-04-12T12:50:23;97380.91;;;15.46;48.54
41624;BME280;27319;50.306;18.926;2023-04-12T12:54:23;97382.44;;;15.36;47.13
41624;BME280;27319;50.306;18.926;2023-04-12T12:58:24;97376.81;;;15.31;49.09
41624;BME280;27319;50.306;18.926;2023-04-12T13:02:25;97365.91;;;15.13;50.60
41624;BME280;27319;50.306;18.926;2023-04-12T13:06:26;97373.81;;;16.19;46.97
41624;BME280;27319;50.306;18.926;2023-04-12T13:10:27;97362.63;;;16.99;49.76
41624;BME280;27319;50.306;18.926;2023-04-12T13:14:28;97361.75;;;16.87;45.95
41624;BME280;27319;50.306;18.926;2023-04-12T13:18:29;97363.94;;;16.49;43.56
41624;BME280;27319;50.306;18.926;2023-04-12T13:22:30;97360.94;;;17.16;45.06
41624;BME280;27319;50.306;18.926;2023-04-12T13:26:34;97352.44;;;17.12;44.39
41624;BME280;27319;50.306;18.926;2023-04-12T13:30:34;97346.59;;;17.91;45.73
41624;BME280;27319;50.306;18.926;2023-04-12T13:34:35;97350.50;;;17.95;40.92
41624;BME280;27319;50.306;18.926;2023-04-12T13:38:36;97339.38;;;18.31;42.70
41624;BME280;27319;50.306;18.926;2023-04-12T13:42:37;97337.72;;;18.30;39.59
41624;BME280;27319;50.306;18.926;2023-04-12T13:46:18;97338.47;;;18.25;40.62
41624;BME280;27319;50.306;18.926;2023-04-12T13:49:39;97331.09;;;18.49;42.86
41624;BME280;27319;50.306;18.926;2023-04-12T13:53:40;97335.03;;;17.84;41.54
41624;BME280;27319;50.306;18.926;2023-04-12T13:57:41;97325.19;;;16.78;45.91
41624;BME280;27319;50.306;18.926;2023-04-12T14:01:42;97326.72;;;16.02;42.42
41624;BME280;27319;50.306;18.926;2023-04-12T14:05:43;97315.56;;;15.92;49.06
41624;BME280;27319;50.306;18.926;2023-04-12T14:09:44;97311.53;;;16.55;47.28
41624;BME280;27319;50.306;18.926;2023-04-12T14:13:45;97309.13;;;16.65;43.74
41624;BME280;27319;50.306;18.926;2023-04-12T14:17:46;97312.66;;;16.29;42.03
41624;BME280;27319;50.306;18.926;2023-04-12T14:21:47;97305.81;;;16.63;44.02
41624;BME280;27319;50.306;18.926;2023-04-12T14:25:47;97315.81;;;16.92;43.05
41624;BME280;27319;50.306;18.926;2023-04-12T14:29:48;97316.47;;;16.76;45.46
41624;BME280;27319;50.306;18.926;2023-04-12T14:33:51;97303.00;;;16.69;45.13
41624;BME280;27319;50.306;18.926;2023-04-12T14:37:50;97298.81;;;16.37;45.55
41624;BME280;27319;50.306;18.926;2023-04-12T14:41:51;97303.13;;;16.09;45.80
41624;BME280;27319;50.306;18.926;2023-04-12T14:45:52;97298.34;;;15.86;46.85
41624;BME280;27319;50.306;18.926;2023-04-12T14:49:53;97297.72;;;15.66;48.97
41624;BME280;27319;50.306;18.926;2023-04-12T14:53:54;97292.19;;;15.55;47.54
41624;BME280;27319;50.306;18.926;2023-04-12T14:57:55;97285.19;;;15.23;48.89
41624;BME280;27319;50.306;18.926;2023-04-12T15:01:56;97273.78;;;14.90;50.06
41624;BME280;27319;50.306;18.926;2023-04-12T15:05:57;97267.31;;;14.66;50.06
41624;BME280;27319;50.306;18.926;2023-04-12T15:09:58;97265.59;;;14.41;50.97
41624;BME280;27319;50.306;18.926;2023-04-12T15:13:59;97260.88;;;14.23;51.80
41624;BME280;27319;50.306;18.926;2023-04-12T15:17:59;97258.47;;;13.96;51.36
41624;BME280;27319;50.306;18.926;2023-04-12T15:22:00;97255.00;;;13.76;50.91
41624;BME280;27319;50.306;18.926;2023-04-12T15:26:01;97253.38;;;13.62;52.25
41624;BME280;27319;50.306;18.926;2023-04-12T15:30:02;97261.91;;;13.46;52.70
41624;BME280;27319;50.306;18.926;2023-04-12T15:34:03;97245.97;;;13.38;54.28
41624;BME280;27319;50.306;18.926;2023-04-12T15:38:03;97248.69;;;13.05;53.05
41624;BME280;27319;50.306;18.926;2023-04-12T15:41:34;97243.72;;;13.09;53.09
41624;BME280;27319;50.306;18.926;2023-04-12T15:44:57;97248.22;;;12.76;51.87
41624;BME280;27319;50.306;18.926;2023-04-12T15:48:58;97248.00;;;12.84;52.57
41624;BME280;27319;50.306;18.926;2023-04-12T15:52:39;97244.06;;;12.67;53.00
41624;BME280;27319;50.306;18.926;2023-04-12T15:55:45;97237.84;;;12.66;55.98
41624;BME280;27319;50.306;18.926;2023-04-12T15:59:06;97237.03;;;12.59;54.64
41624;BME280;27319;50.306;18.926;2023-04-12T16:02:57;97230.78;;;12.52;54.56
41624;BME280;27319;50.306;18.926;2023-04-12T16:06:57;97240.72;;;12.45;52.81
41624;BME280;27319;50.306;18.926;2023-04-12T16:10:38;97227.44;;;12.31;56.80
41624;BME280;27319;50.306;18.926;2023-04-12T16:13:40;97227.47;;;12.37;54.05
41624;BME280;27319;50.306;18.926;2023-04-12T16:17:04;97223.75;;;12.45;55.45
41624;BME280;27319;50.306;18.926;2023-04-12T16:21:06;97225.56;;;12.25;57.44
41624;BME280;27319;50.306;18.926;2023-04-12T16:25:06;97222.00;;;12.05;56.34
41624;BME280;27319;50.306;18.926;2023-04-12T16:29:10;97214.09;;;11.90;57.73
41624;BME280;27319;50.306;18.926;2023-04-12T16:33:10;97206.56;;;11.73;59.52
41624;BME280;27319;50.306;18.926;2023-04-12T16:37:11;97201.78;;;11.75;61.89
41624;BME280;27319;50.306;18.926;2023-04-12T16:40:27;97203.69;;;11.81;61.08
41624;BME280;27319;50.306;18.926;2023-04-12T16:43:48;97196.09;;;11.57;59.39
41624;BME280;27319;50.306;18.926;2023-04-12T16:47:49;97189.00;;;11.43;60.65
41624;BME280;27319;50.306;18.926;2023-04-12T16:51:50;97184.22;;;11.38;62.60
41624;BME280;27319;50.306;18.926;2023-04-12T16:55:31;97181.28;;;11.27;62.56
41624;BME280;27319;50.306;18.926;2023-04-12T16:58:52;97185.13;;;11.18;61.58
41624;BME280;27319;50.306;18.926;2023-04-12T17:02:53;97178.50;;;11.14;65.22
41624;BME280;27319;50.306;18.926;2023-04-12T17:06:54;97181.50;;;10.98;62.95
41624;BME280;27319;50.306;18.926;2023-04-12T17:10:55;97176.25;;;10.83;61.81
41624;BME280;27319;50.306;18.926;2023-04-12T17:14:55;97179.34;;;10.87;65.64
41624;BME280;27319;50.306;18.926;2023-04-12T17:18:56;97165.59;;;10.69;64.19
41624;BME280;27319;50.306;18.926;2023-04-12T17:22:57;97178.75;;;10.64;63.86
41624;BME280;27319;50.306;18.926;2023-04-12T17:26:58;97179.34;;;10.60;66.88
41624;BME280;27319;50.306;18.926;2023-04-12T17:30:59;97170.03;;;10.56;67.38
41624;BME280;27319;50.306;18.926;2023-04-12T17:35:00;97169.34;;;10.47;67.71
41624;BME280;27319;50.306;18.926;2023-04-12T17:39:01;97182.38;;;10.29;65.58
41624;BME280;27319;50.306;18.926;2023-04-12T17:43:02;97184.94;;;10.16;66.69
41624;BME280;27319;50.306;18.926;2023-04-12T17:47:03;97188.75;;;10.07;66.40
41624;BME280;27319;50.306;18.926;2023-04-12T17:51:05;97188.44;;;10.02;67.39
41624;BME280;27319;50.306;18.926;2023-04-12T17:55:05;97185.78;;;10.02;68.90
41624;BME280;27319;50.306;18.926;2023-04-12T17:59:06;97186.72;;;9.95;68.81
41624;BME280;27319;50.306;18.926;2023-04-12T18:02:55;97180.47;;;9.88;70.26
41624;BME280;27319;50.306;18.926;2023-04-12T18:06:56;97182.31;;;9.87;69.90
41624;BME280;27319;50.306;18.926;2023-04-12T18:10:57;97188.09;;;9.70;69.47
41624;BME280;27319;50.306;18.926;2023-04-12T18:14:58;97189.03;;;9.62;68.94
41624;BME280;27319;50.306;18.926;2023-04-12T18:19:03;97188.66;;;9.65;71.90
41624;BME280;27319;50.306;18.926;2023-04-12T18:23:03;97184.22;;;9.58;72.42
41624;BME280;27319;50.306;18.926;2023-04-12T18:26:24;97187.19;;;9.63;73.28
41624;BME280;27319;50.306;18.926;2023-04-12T18:30:25;97190.22;;;9.60;72.85
41624;BME280;27319;50.306;18.926;2023-04-12T18:34:26;97181.75;;;9.42;70.58
41624;BME280;27319;50.306;18.926;2023-04-12T18:38:27;97186.94;;;9.29;70.67
41624;BME280;27319;50.306;18.926;2023-04-12T18:42:28;97176.81;;;9.24;71.68
41624;BME280;27319;50.306;18.926;2023-04-12T18:46:16;97178.91;;;9.14;71.94
41624;BME280;27319;50.306;18.926;2023-04-12T18:49:17;97186.09;;;8.99;71.19
41624;BME280;27319;50.306;18.926;2023-04-12T18:52:38;97193.56;;;8.75;70.11
41624;BME280;27319;50.306;18.926;2023-04-12T18:56:39;97206.84;;;8.68;71.94
41624;BME280;27319;50.306;18.926;2023-04-12T19:00:40;97192.81;;;8.66;72.39
41624;BME280;27319;50.306;18.926;2023-04-12T19:04:41;97189.75;;;8.55;73.19
41624;BME280;27319;50.306;18.926;2023-04-12T19:08:42;97189.91;;;8.53;73.24
41624;BME280;27319;50.306;18.926;2023-04-12T19:12:43;97188.34;;;8.44;73.22
41624;BME280;27319;50.306;18.926;2023-04-12T19:16:43;97197.38;;;8.43;73.35
41624;BME280;27319;50.306;18.926;2023-04-12T19:20:44;97193.56;;;8.38;72.87
41624;BME280;27319;50.306;18.926;2023-04-12T19:24:45;97197.63;;;8.48;74.87
41624;BME280;27319;50.306;18.926;2023-04-12T19:28:45;97197.72;;;8.18;75.26
41624;BME280;27319;50.306;18.926;2023-04-12T19:32:47;97197.69;;;8.26;74.43
41624;BME280;27319;50.306;18.926;2023-04-12T19:36:47;97193.88;;;8.20;73.21
41624;BME280;27319;50.306;18.926;2023-04-12T19:40:49;97199.31;;;8.04;73.74
41624;BME280;27319;50.306;18.926;2023-04-12T19:44:49;97185.53;;;8.15;74.86
41624;BME280;27319;50.306;18.926;2023-04-12T19:48:50;97180.53;;;8.12;73.99
41624;BME280;27319;50.306;18.926;2023-04-12T19:52:31;97174.97;;;7.99;74.85
41624;BME280;27319;50.306;18.926;2023-04-12T19:55:54;97171.28;;;8.00;75.06
41624;BME280;27319;50.306;18.926;2023-04-12T19:59:53;97165.22;;;8.06;77.05
41624;BME280;27319;50.306;18.926;2023-04-12T20:03:14;97163.09;;;8.02;76.47
41624;BME280;27319;50.306;18.926;2023-04-12T20:07:15;97160.75;;;7.99;77.01
41624;BME280;27319;50.306;18.926;2023-04-12T20:11:16;97160.91;;;7.83;76.46
41624;BME280;27319;50.306;18.926;2023-04-12T20:15:17;97165.31;;;7.90;76.89
41624;BME280;27319;50.306;18.926;2023-04-12T20:18:58;97157.44;;;7.97;77.15
41624;BME280;27319;50.306;18.926;2023-04-12T20:22:19;97157.50;;;7.89;76.37
41624;BME280;27319;50.306;18.926;2023-04-12T20:26:19;97158.09;;;7.76;77.34
41624;BME280;27319;50.306;18.926;2023-04-12T20:30:20;97153.53;;;7.85;76.93
41624;BME280;27319;50.306;18.926;2023-04-12T20:34:21;97165.56;;;7.81;77.29
41624;BME280;27319;50.306;18.926;2023-04-12T20:38:22;97158.22;;;7.83;78.98
41624;BME280;27319;50.306;18.926;2023-04-12T20:42:23;97145.38;;;7.78;77.51
41624;BME280;27319;50.306;18.926;2023-04-12T20:46:24;97156.31;;;7.69;77.55
41624;BME280;27319;50.306;18.926;2023-04-12T20:50:25;97152.28;;;7.73;77.76
41624;BME280;27319;50.306;18.926;2023-04-12T20:54:26;97141.91;;;7.78;78.17
41624;BME280;27319;50.306;18.926;2023-04-12T20:58:26;97150.97;;;7.69;78.29
41624;BME280;27319;50.306;18.926;2023-04-12T21:02:07;97141.91;;;7.47;78.30
41624;BME280;27319;50.306;18.926;2023-04-12T21:05:08;97141.34;;;7.60;79.31
41624;BME280;27319;50.306;18.926;2023-04-12T21:08:09;97136.34;;;7.57;79.53